Time;durP1;ratioP1;P1;durP2;ratioP2;P2;SDS_P1;SDS_P2;PMS_P1;PMS_P2;Temp;Humidity;BMP_temperature;BMP_pressure;BME280_temperature;BME280_humidity;BME280_pressure;Samples;Min_cycle;Max_cycle;Signal;HPM_P1;HPM_P2
2022/10/28 00:01:14;;;;;;;26.70;24.20;;;12.30;99.90;;;;;;6155463;23;20207;-84
2022/10/28 00:03:45;;;;;;;27.30;24.48;;;12.20;99.90;;;;;;6155403;23;20221;-86
2022/10/28 00:06:15;;;;;;;26.88;24.15;;;12.20;99.90;;;;;;6155514;23;20174;-87
2022/10/28 00:08:43;;;;;;;26.73;24.25;;;12.20;99.90;;;;;;6154630;23;20171;-86
2022/10/28 00:11:16;;;;;;;30.90;24.20;;;12.20;99.90;;;;;;6155332;23;20187;-86
2022/10/28 00:13:45;;;;;;;27.02;24.15;;;12.20;99.90;;;;;;6155546;23;20171;-86
2022/10/28 00:16:15;;;;;;;26.80;24.10;;;12.10;99.90;;;;;;6154920;23;20182;-86
2022/10/28 00:18:43;;;;;;;25.40;22.80;;;12.10;99.90;;;;;;6154683;23;20194;-86
2022/10/28 00:21:15;;;;;;;25.73;23.20;;;12.20;99.90;;;;;;6155073;23;20199;-86
2022/10/28 00:23:44;;;;;;;27.65;23.20;;;12.10;99.90;;;;;;6155157;23;20167;-85
2022/10/28 00:26:15;;;;;;;25.30;22.83;;;12.20;99.90;;;;;;6155543;23;20182;-86
2022/10/28 00:28:46;;;;;;;23.20;21.00;;;12.20;99.90;;;;;;6154269;23;20175;-85
2022/10/28 00:31:16;;;;;;;24.85;22.25;;;12.10;99.90;;;;;;6154814;23;20195;-86
2022/10/28 00:33:45;;;;;;;25.25;22.20;;;12.10;99.90;;;;;;6155095;23;20167;-85
2022/10/28 00:36:16;;;;;;;23.88;21.45;;;12.20;99.90;;;;;;6155408;23;20178;-85
2022/10/28 00:38:45;;;;;;;24.10;21.60;;;12.10;99.90;;;;;;6154324;23;20170;-85
2022/10/28 00:41:17;;;;;;;24.98;21.17;;;12.10;99.90;;;;;;6154780;23;20199;-85
2022/10/28 00:43:49;;;;;;;24.80;21.70;;;12.10;99.90;;;;;;6155173;23;20168;-85
2022/10/28 00:46:23;;;;;;;27.17;23.10;;;12.10;99.90;;;;;;6155059;23;20173;-85
2022/10/28 00:48:55;;;;;;;23.17;20.73;;;12.10;99.90;;;;;;6154479;23;20176;-85
2022/10/28 00:51:24;;;;;;;24.52;22.13;;;12.10;99.90;;;;;;6155632;23;20195;-85
2022/10/28 00:53:54;;;;;;;21.63;19.60;;;12.10;99.90;;;;;;6155030;23;20183;-85
2022/10/28 00:56:28;;;;;;;22.23;20.13;;;12.10;99.90;;;;;;6154579;23;20226;-85
2022/10/28 00:58:58;;;;;;;23.55;21.08;;;12.10;99.90;;;;;;6154624;23;20178;-85
2022/10/28 01:01:26;;;;;;;24.55;21.95;;;12.10;99.90;;;;;;6154956;23;20199;-85
2022/10/28 01:03:56;;;;;;;21.98;19.05;;;12.10;99.90;;;;;;6154798;23;20198;-85
2022/10/28 01:06:26;;;;;;;22.65;20.23;;;12.10;99.90;;;;;;6154897;23;20175;-85
2022/10/28 01:08:54;;;;;;;20.70;18.80;;;12.10;99.90;;;;;;6154012;23;20180;-85
2022/10/28 01:11:45;;;;;;;28.73;20.48;;;12.10;99.90;;;;;;6154906;23;20191;-85
2022/10/28 01:14:30;;;;;;;20.35;18.48;;;12.00;99.90;;;;;;6154729;23;20163;-85
2022/10/28 01:17:12;;;;;;;20.60;18.55;;;12.00;99.90;;;;;;6155282;23;20178;-85
2022/10/28 01:20:07;;;;;;;20.63;18.52;;;12.00;99.90;;;;;;6153873;23;20174;-85
2022/10/28 01:22:41;;;;;;;21.23;19.13;;;12.00;99.90;;;;;;6154896;23;20174;-85
2022/10/28 01:25:52;;;;;;;21.05;19.00;;;11.90;99.90;;;;;;6155170;23;20178;-84
2022/10/28 01:28:51;;;;;;;20.05;18.15;;;12.00;99.90;;;;;;6132668;23;20181;-84
2022/10/28 01:31:31;;;;;;;19.20;17.30;;;11.90;99.90;;;;;;6154540;23;20203;-85
2022/10/28 01:34:10;;;;;;;20.08;18.05;;;11.90;99.90;;;;;;6154775;23;20178;-85
2022/10/28 01:36:46;;;;;;;20.30;18.20;;;11.90;99.90;;;;;;6154612;23;20175;-85
2022/10/28 01:39:24;;;;;;;20.35;18.25;;;11.80;99.90;;;;;;6154008;23;20170;-85
2022/10/28 01:41:56;;;;;;;20.23;18.17;;;11.80;99.90;;;;;;6155076;23;20197;-85
2022/10/28 01:44:30;;;;;;;19.77;17.90;;;11.80;99.90;;;;;;6155460;23;20187;-85
2022/10/28 01:47:08;;;;;;;22.05;19.27;;;11.80;99.90;;;;;;6154690;23;20181;-85
2022/10/28 01:49:41;;;;;;;22.08;19.05;;;11.70;99.90;;;;;;6153825;23;20221;-85
2022/10/28 01:52:14;;;;;;;19.80;17.80;;;11.80;99.90;;;;;;6155279;23;20178;-85
2022/10/28 01:54:45;;;;;;;19.85;17.83;;;11.80;99.90;;;;;;6155005;23;20167;-85
2022/10/28 01:57:16;;;;;;;21.15;18.75;;;11.80;99.90;;;;;;6154761;23;20171;-85
2022/10/28 01:59:47;;;;;;;21.30;19.05;;;11.80;99.90;;;;;;6153763;23;20210;-85
2022/10/28 02:02:18;;;;;;;19.02;17.08;;;11.70;99.90;;;;;;6154467;23;20188;-86
2022/10/28 02:04:46;;;;;;;24.20;20.40;;;11.80;99.90;;;;;;6154608;23;20190;-86
2022/10/28 02:07:15;;;;;;;19.80;17.92;;;11.80;99.90;;;;;;6154359;23;20175;-85
2022/10/28 02:09:54;;;;;;;23.30;20.27;;;11.70;99.90;;;;;;6155541;23;20178;-85
2022/10/28 02:12:28;;;;;;;21.77;19.73;;;11.80;99.90;;;;;;6156921;23;20175;-85
2022/10/28 02:15:26;;;;;;;22.17;19.70;;;11.80;99.90;;;;;;6156604;23;20202;-85
2022/10/28 02:18:09;;;;;;;23.52;21.10;;;11.80;99.90;;;;;;6156601;23;20170;-85
2022/10/28 02:20:45;;;;;;;24.33;21.80;;;11.80;99.90;;;;;;6155848;23;20195;-85
2022/10/28 02:23:22;;;;;;;23.65;21.20;;;11.80;99.90;;;;;;6156564;23;20178;-85
2022/10/28 02:25:56;;;;;;;23.98;21.65;;;11.70;99.90;;;;;;6156145;23;20174;-85
2022/10/28 02:28:32;;;;;;;23.52;21.13;;;11.80;99.90;;;;;;6156044;23;20162;-84
2022/10/28 02:31:05;;;;;;;25.23;21.60;;;11.70;99.90;;;;;;6156096;23;20203;-84
2022/10/28 02:33:38;;;;;;;22.80;20.65;;;11.70;99.90;;;;;;6156264;23;20175;-86
2022/10/28 02:36:11;;;;;;;23.25;20.55;;;11.80;99.90;;;;;;6156270;23;20163;-85
2022/10/28 02:38:46;;;;;;;24.20;21.55;;;11.70;99.90;;;;;;6155218;23;20167;-85
2022/10/28 02:41:20;;;;;;;22.70;20.55;;;11.70;99.90;;;;;;6156248;23;20194;-85
2022/10/28 02:43:53;;;;;;;23.63;21.17;;;11.70;99.90;;;;;;6156551;23;20178;-85
2022/10/28 02:46:23;;;;;;;24.77;22.05;;;11.70;99.90;;;;;;6156201;23;20194;-85
2022/10/28 02:48:54;;;;;;;23.58;21.08;;;11.70;99.90;;;;;;6155252;23;20183;-86
2022/10/28 02:51:29;;;;;;;24.63;22.08;;;11.70;99.90;;;;;;6155659;23;20193;-85
2022/10/28 02:54:02;;;;;;;22.90;20.73;;;11.80;99.90;;;;;;6156326;23;20173;-85
2022/10/28 02:56:35;;;;;;;28.77;23.20;;;11.80;99.90;;;;;;6156029;23;20178;-85
2022/10/28 02:59:03;;;;;;;21.23;19.35;;;11.80;99.90;;;;;;6155510;23;20170;-85
2022/10/28 03:01:31;;;;;;;24.73;22.38;;;11.80;99.90;;;;;;6155461;23;20199;-85
2022/10/28 03:04:02;;;;;;;24.77;22.17;;;11.80;99.90;;;;;;6155822;23;20225;-85
2022/10/28 03:06:30;;;;;;;27.15;21.83;;;11.80;99.90;;;;;;6155996;23;20224;-85
2022/10/28 03:08:58;;;;;;;23.35;20.98;;;11.80;99.90;;;;;;6154937;23;20181;-85
2022/10/28 03:11:27;;;;;;;24.33;21.83;;;11.90;99.90;;;;;;6156100;23;20274;-85
2022/10/28 03:13:55;;;;;;;22.63;20.38;;;11.90;99.90;;;;;;6155970;23;20177;-86
2022/10/28 03:16:25;;;;;;;26.15;23.42;;;11.90;99.90;;;;;;6155668;23;20218;-85
2022/10/28 03:18:53;;;;;;;24.95;22.45;;;11.90;99.90;;;;;;6154781;23;20179;-85
2022/10/28 03:21:23;;;;;;;27.73;23.85;;;11.90;99.90;;;;;;6155928;23;20191;-85
2022/10/28 03:23:52;;;;;;;28.58;21.63;;;11.80;99.90;;;;;;6155734;23;20175;-85
2022/10/28 03:26:20;;;;;;;24.67;22.13;;;11.80;99.90;;;;;;6155730;23;20186;-85
2022/10/28 03:28:48;;;;;;;26.63;21.48;;;11.80;99.90;;;;;;6155143;23;20177;-85
2022/10/28 03:31:16;;;;;;;22.40;20.15;;;11.80;99.90;;;;;;6155359;23;20199;-86
2022/10/28 03:33:44;;;;;;;26.05;22.13;;;11.80;99.90;;;;;;6156027;23;20175;-85
2022/10/28 03:36:13;;;;;;;22.98;20.77;;;11.80;99.90;;;;;;6155871;23;20182;-85
2022/10/28 03:38:42;;;;;;;22.27;19.98;;;11.80;99.90;;;;;;6154920;23;20179;-85
2022/10/28 03:41:10;;;;;;;26.52;20.90;;;11.80;99.90;;;;;;6155277;23;20195;-85
2022/10/28 03:43:39;;;;;;;23.05;20.95;;;11.80;99.90;;;;;;6155679;23;20175;-85
2022/10/28 03:46:07;;;;;;;25.58;22.88;;;11.80;99.90;;;;;;6155798;23;20182;-85
2022/10/28 03:48:35;;;;;;;22.92;19.52;;;11.80;99.90;;;;;;6155321;23;20182;-85
2022/10/28 03:51:03;;;;;;;22.55;20.25;;;11.80;99.90;;;;;;6155405;23;20198;-85
2022/10/28 03:53:31;;;;;;;23.20;20.73;;;11.80;99.90;;;;;;6155251;23;20179;-85
2022/10/28 03:56:03;;;;;;;25.70;20.73;;;11.70;99.90;;;;;;6155204;23;20175;-85
2022/10/28 03:58:31;;;;;;;25.98;21.10;;;11.70;99.90;;;;;;6154964;23;20175;-85
2022/10/28 04:01:04;;;;;;;25.55;20.77;;;11.70;99.90;;;;;;6155580;23;20254;-85
2022/10/28 04:03:32;;;;;;;22.13;19.67;;;11.80;99.90;;;;;;6155495;23;20270;-85
2022/10/28 04:06:01;;;;;;;23.48;20.95;;;11.70;99.90;;;;;;6155340;23;20175;-85
2022/10/28 04:08:29;;;;;;;21.17;19.20;;;11.70;99.90;;;;;;6154936;23;20439;-86
2022/10/28 04:10:57;;;;;;;29.40;22.60;;;11.70;99.90;;;;;;6155027;23;20191;-85
2022/10/28 04:13:27;;;;;;;26.33;22.38;;;11.70;99.90;;;;;;6155281;23;20171;-85
2022/10/28 04:15:55;;;;;;;24.10;21.30;;;11.70;99.90;;;;;;6155576;23;20181;-85
2022/10/28 04:18:23;;;;;;;22.17;20.08;;;11.80;99.90;;;;;;6154687;23;20183;-85
2022/10/28 04:20:52;;;;;;;28.50;21.85;;;11.80;99.90;;;;;;6155364;23;20202;-85
2022/10/28 04:23:20;;;;;;;23.15;20.75;;;11.80;99.90;;;;;;6155323;23;20200;-85
2022/10/28 04:25:52;;;;;;;22.60;20.45;;;11.80;99.90;;;;;;6155006;23;20179;-86
2022/10/28 04:28:21;;;;;;;24.50;21.30;;;11.80;99.90;;;;;;6155172;23;20171;-85
2022/10/28 04:30:50;;;;;;;22.17;20.13;;;11.80;99.90;;;;;;6154360;23;20210;-85
2022/10/28 04:33:19;;;;;;;28.38;22.27;;;11.70;99.90;;;;;;6155121;23;20171;-84
2022/10/28 04:35:47;;;;;;;25.35;21.05;;;11.80;99.90;;;;;;6155135;23;20172;-85
2022/10/28 04:38:15;;;;;;;23.45;21.10;;;11.80;99.90;;;;;;6154994;23;20175;-84
2022/10/28 04:40:43;;;;;;;23.25;21.25;;;11.80;99.90;;;;;;6154351;23;20250;-86
2022/10/28 04:43:11;;;;;;;29.77;21.63;;;11.80;99.90;;;;;;6154661;23;20191;-84
2022/10/28 04:45:40;;;;;;;25.25;22.70;;;11.80;99.90;;;;;;6154830;23;20176;-86
2022/10/28 04:48:10;;;;;;;25.38;22.83;;;11.80;99.90;;;;;;6155356;23;20186;-85
2022/10/28 04:50:39;;;;;;;27.60;22.40;;;11.70;99.90;;;;;;6154351;23;20198;-85
2022/10/28 04:53:07;;;;;;;25.10;22.50;;;11.70;99.90;;;;;;6155253;23;20178;-84
2022/10/28 04:55:35;;;;;;;23.63;20.55;;;11.70;99.90;;;;;;6154751;23;20178;-84
2022/10/28 04:58:04;;;;;;;24.63;21.98;;;11.60;99.90;;;;;;6154559;23;20175;-85
2022/10/28 05:00:32;;;;;;;26.65;22.38;;;11.60;99.90;;;;;;6154530;23;20202;-85
2022/10/28 05:03:01;;;;;;;22.95;20.55;;;11.60;99.90;;;;;;6154584;23;20194;-86
2022/10/28 05:05:31;;;;;;;23.23;20.75;;;11.60;99.90;;;;;;6155144;23;20175;-85
2022/10/28 05:08:01;;;;;;;25.27;22.58;;;11.60;99.90;;;;;;6154818;23;20179;-85
2022/10/28 05:10:30;;;;;;;24.25;21.38;;;11.60;99.90;;;;;;6153632;23;20195;-85
2022/10/28 05:12:58;;;;;;;25.52;22.20;;;11.60;99.90;;;;;;6154600;23;20174;-85
2022/10/28 05:15:26;;;;;;;23.25;20.70;;;11.60;99.90;;;;;;6154501;23;20205;-85
2022/10/28 05:17:55;;;;;;;22.88;19.90;;;11.60;99.90;;;;;;6155153;23;20198;-85
2022/10/28 05:20:24;;;;;;;22.30;19.98;;;11.50;99.90;;;;;;6154108;23;20290;-85
2022/10/28 05:22:55;;;;;;;23.05;20.60;;;11.50;99.90;;;;;;6154731;23;20198;-85
2022/10/28 05:25:24;;;;;;;21.42;19.15;;;11.50;99.90;;;;;;6155135;23;20182;-85
2022/10/28 05:27:53;;;;;;;20.30;18.23;;;11.50;99.90;;;;;;6154855;23;20179;-85
2022/10/28 05:30:21;;;;;;;20.63;18.70;;;11.50;99.90;;;;;;6154182;23;20203;-85
2022/10/28 05:32:49;;;;;;;19.58;17.60;;;11.40;99.90;;;;;;6155045;23;20178;-85
2022/10/28 05:35:22;;;;;;;20.30;18.27;;;11.50;99.90;;;;;;6155100;23;20175;-85
2022/10/28 05:37:50;;;;;;;24.77;19.58;;;11.50;99.90;;;;;;6154766;23;20186;-85
2022/10/28 05:40:20;;;;;;;19.77;17.80;;;11.50;99.90;;;;;;6153978;23;20202;-85
2022/10/28 05:42:49;;;;;;;19.48;17.45;;;11.50;99.90;;;;;;6155338;23;20202;-85
2022/10/28 05:45:17;;;;;;;20.20;18.27;;;11.50;99.90;;;;;;6156999;23;20182;-84
2022/10/28 05:47:46;;;;;;;17.35;15.82;;;11.50;99.90;;;;;;6156659;23;20171;-85
2022/10/28 05:50:18;;;;;;;23.80;17.08;;;11.50;99.90;;;;;;6155860;23;20199;-84
2022/10/28 05:52:47;;;;;;;18.50;16.73;;;11.50;99.90;;;;;;6156621;23;20167;-84
2022/10/28 05:55:18;;;;;;;18.25;16.55;;;11.50;99.90;;;;;;6156876;23;20173;-85
2022/10/28 05:57:57;;;;;;;21.25;19.00;;;11.50;99.90;;;;;;6156342;23;20233;-84
2022/10/28 06:00:26;;;;;;;20.02;18.02;;;11.50;99.90;;;;;;6155944;23;20199;-85
2022/10/28 06:03:02;;;;;;;17.92;16.25;;;11.40;99.90;;;;;;6156497;23;20191;-85
2022/10/28 06:05:30;;;;;;;21.05;18.02;;;11.40;99.90;;;;;;6156665;23;20179;-84
2022/10/28 06:07:59;;;;;;;18.40;16.52;;;11.50;99.90;;;;;;6156240;23;20179;-85
2022/10/28 06:10:27;;;;;;;16.90;14.80;;;11.40;99.90;;;;;;6155458;23;20198;-85
2022/10/28 06:12:57;;;;;;;17.63;15.88;;;11.40;99.90;;;;;;6156739;23;20181;-85
2022/10/28 06:15:25;;;;;;;17.58;15.65;;;11.50;99.90;;;;;;6156590;23;20178;-85
2022/10/28 06:17:54;;;;;;;17.60;15.73;;;11.50;99.90;;;;;;6156072;23;20179;-85
2022/10/28 06:20:22;;;;;;;14.38;13.15;;;11.50;99.90;;;;;;6155824;23;20191;-85
2022/10/28 06:22:51;;;;;;;17.45;15.63;;;11.50;99.90;;;;;;6156395;23;20191;-85
2022/10/28 06:25:21;;;;;;;17.30;15.70;;;11.50;99.90;;;;;;6156601;23;20175;-85
2022/10/28 06:27:53;;;;;;;16.90;15.10;;;11.50;99.90;;;;;;6156225;23;20179;-84
2022/10/28 06:30:25;;;;;;;20.55;16.27;;;11.40;99.90;;;;;;6155596;23;20199;-85
2022/10/28 06:32:56;;;;;;;16.95;15.40;;;11.50;99.90;;;;;;6156482;23;20175;-84
2022/10/28 06:35:24;;;;;;;17.70;15.85;;;11.40;99.90;;;;;;6156257;23;20182;-84
2022/10/28 06:37:54;;;;;;;16.33;14.77;;;11.40;99.90;;;;;;6156230;23;20171;-85
2022/10/28 06:40:23;;;;;;;22.45;15.60;;;11.40;99.90;;;;;;6154909;23;20195;-84
2022/10/28 06:42:59;;;;;;;17.90;16.10;;;11.40;99.90;;;;;;6155946;23;20171;-84
2022/10/28 06:45:30;;;;;;;16.10;13.68;;;11.40;99.90;;;;;;6156263;23;20181;-84
2022/10/28 06:47:59;;;;;;;16.88;15.25;;;11.40;99.90;;;;;;6155918;23;20182;-85
2022/10/28 06:50:28;;;;;;;20.35;16.13;;;11.40;99.90;;;;;;6155710;23;20206;-86
2022/10/28 06:52:57;;;;;;;17.85;14.75;;;11.40;99.90;;;;;;6156141;23;20180;-86
2022/10/28 06:55:25;;;;;;;17.00;15.23;;;11.50;99.90;;;;;;6155678;23;20171;-85
2022/10/28 06:57:54;;;;;;;17.10;15.10;;;11.50;99.90;;;;;;6156339;23;20175;-85
2022/10/28 07:00:23;;;;;;;18.20;15.90;;;11.40;99.90;;;;;;6155390;23;20218;-84
2022/10/28 07:02:53;;;;;;;19.10;15.48;;;11.40;99.90;;;;;;6155904;23;20175;-84
2022/10/28 07:05:25;;;;;;;19.88;17.67;;;11.40;99.90;;;;;;6156119;23;20182;-85
2022/10/28 07:07:53;;;;;;;18.48;16.55;;;11.40;99.90;;;;;;6156349;23;20198;-85
2022/10/28 07:10:22;;;;;;;19.52;17.52;;;11.40;99.90;;;;;;6154737;23;20191;-85
2022/10/28 07:12:52;;;;;;;20.77;16.92;;;11.40;99.90;;;;;;6155557;23;20171;-85
2022/10/28 07:15:21;;;;;;;21.05;17.13;;;11.40;99.90;;;;;;6155742;23;20230;-85
2022/10/28 07:17:54;;;;;;;15.57;14.18;;;11.50;99.90;;;;;;6155767;23;20179;-85
2022/10/28 07:20:30;;;;;;;17.80;15.95;;;11.50;99.90;;;;;;6155466;23;20266;-85
2022/10/28 07:23:00;;;;;;;16.05;14.48;;;11.50;99.90;;;;;;6155740;23;20181;-85
2022/10/28 07:25:30;;;;;;;16.58;14.98;;;11.50;99.90;;;;;;6155847;23;20167;-85
2022/10/28 07:27:59;;;;;;;17.55;15.68;;;11.50;99.90;;;;;;6156079;23;20164;-85
2022/10/28 07:30:28;;;;;;;17.73;15.60;;;11.50;99.90;;;;;;6155071;23;20209;-85
2022/10/28 07:32:59;;;;;;;18.58;16.75;;;11.50;99.90;;;;;;6155882;23;20183;-84
2022/10/28 07:35:28;;;;;;;18.08;16.30;;;11.60;99.90;;;;;;6155293;23;20250;-84
2022/10/28 07:37:57;;;;;;;17.58;15.85;;;11.60;99.90;;;;;;6155357;23;20186;-84
2022/10/28 07:40:34;;;;;;;17.55;15.75;;;11.70;99.90;;;;;;6155299;23;20191;-84
2022/10/28 07:43:02;;;;;;;17.35;15.60;;;11.70;99.90;;;;;;6155456;23;20181;-85
2022/10/28 07:45:31;;;;;;;16.35;14.85;;;11.70;99.90;;;;;;6155421;23;20192;-85
2022/10/28 07:48:00;;;;;;;18.95;16.33;;;11.80;99.90;;;;;;6155830;23;20175;-84
2022/10/28 07:50:29;;;;;;;25.73;16.50;;;11.80;99.90;;;;;;6154292;23;20195;-86
2022/10/28 07:52:57;;;;;;;18.45;16.63;;;11.80;99.90;;;;;;6155931;23;20171;-86
2022/10/28 07:55:25;;;;;;;21.38;17.42;;;11.80;99.90;;;;;;6155381;23;20179;-86
2022/10/28 07:57:54;;;;;;;18.88;16.98;;;11.80;99.90;;;;;;6155704;23;20175;-86
2022/10/28 08:00:23;;;;;;;22.05;17.42;;;11.80;99.90;;;;;;6154244;23;20270;-86
2022/10/28 08:02:51;;;;;;;17.85;16.05;;;11.80;99.90;;;;;;6155609;23;20171;-86
2022/10/28 08:05:21;;;;;;;18.65;15.60;;;11.80;99.90;;;;;;6155671;23;20195;-86
2022/10/28 08:07:49;;;;;;;17.65;15.70;;;11.80;99.90;;;;;;6155489;23;20178;-86
2022/10/28 08:10:17;;;;;;;17.75;15.90;;;11.90;99.90;;;;;;6154295;23;20202;-86
2022/10/28 08:12:46;;;;;;;17.27;15.27;;;11.90;99.90;;;;;;6155127;23;20182;-86
2022/10/28 08:15:15;;;;;;;16.98;15.20;;;11.90;99.90;;;;;;6155275;23;20167;-86
2022/10/28 08:17:43;;;;;;;15.82;14.15;;;11.90;99.90;;;;;;6155395;23;20185;-86
2022/10/28 08:20:12;;;;;;;16.55;14.63;;;12.00;99.90;;;;;;6154699;23;20199;-86
2022/10/28 08:22:41;;;;;;;15.93;14.32;;;12.00;99.90;;;;;;6155484;23;20172;-86
2022/10/28 08:25:10;;;;;;;16.67;15.00;;;12.00;99.90;;;;;;6155170;23;20203;-86
2022/10/28 08:27:40;;;;;;;16.45;14.55;;;12.00;99.90;;;;;;6154926;23;20179;-86
2022/10/28 08:30:12;;;;;;;16.10;14.43;;;12.10;99.90;;;;;;6154350;23;20226;-86
2022/10/28 08:32:40;;;;;;;19.95;15.43;;;12.00;99.90;;;;;;6155350;23;20170;-86
2022/10/28 08:35:09;;;;;;;14.20;12.75;;;12.00;99.90;;;;;;6155470;23;20167;-86
2022/10/28 08:37:38;;;;;;;13.35;12.07;;;11.90;99.90;;;;;;6155299;23;20254;-85
2022/10/28 08:40:13;;;;;;;13.50;12.02;;;11.90;99.90;;;;;;6154790;23;20274;-86
2022/10/28 08:42:46;;;;;;;11.77;10.60;;;12.00;99.90;;;;;;6155312;23;20166;-86
2022/10/28 08:45:23;;;;;;;12.45;11.32;;;12.00;99.90;;;;;;6155401;23;20193;-86
2022/10/28 08:48:03;;;;;;;10.45;9.65;;;12.00;99.90;;;;;;6155344;23;20230;-85
2022/10/28 08:50:37;;;;;;;13.13;11.82;;;12.10;99.90;;;;;;6154568;23;20250;-85
2022/10/28 08:53:16;;;;;;;13.27;12.00;;;12.10;99.90;;;;;;6155099;23;20167;-85
2022/10/28 08:55:47;;;;;;;14.63;13.23;;;12.10;99.90;;;;;;6155151;23;20163;-85
2022/10/28 08:58:21;;;;;;;13.93;12.63;;;12.10;99.90;;;;;;6155180;23;20202;-86
2022/10/28 09:00:53;;;;;;;12.50;11.30;;;12.10;99.90;;;;;;6154857;23;20277;-85
2022/10/28 09:03:27;;;;;;;12.80;11.50;;;12.10;99.90;;;;;;6154678;23;20227;-85
2022/10/28 09:06:01;;;;;;;13.52;10.13;;;12.00;99.90;;;;;;6155284;23;20201;-85
2022/10/28 09:08:35;;;;;;;11.68;10.57;;;12.00;99.90;;;;;;6153963;23;20175;-86
2022/10/28 09:11:45;;;;;;;11.10;10.10;;;12.00;99.90;;;;;;6154970;23;20198;-85
2022/10/28 09:14:25;;;;;;;11.10;9.60;;;12.00;99.90;;;;;;6154831;23;20175;-86
2022/10/28 09:17:04;;;;;;;11.30;10.27;;;12.00;99.90;;;;;;6154640;23;20222;-86
2022/10/28 09:19:44;;;;;;;13.15;11.48;;;12.10;99.90;;;;;;6154329;23;20194;-87
2022/10/28 09:22:25;;;;;;;16.02;11.77;;;12.20;99.90;;;;;;6155078;23;20171;-85
2022/10/28 09:25:00;;;;;;;14.70;10.00;;;12.10;99.90;;;;;;6155184;23;20191;-85
2022/10/28 09:27:49;;;;;;;12.13;10.32;;;12.20;99.90;;;;;;6155146;23;20181;-86
2022/10/28 09:30:28;;;;;;;10.68;9.77;;;12.20;99.90;;;;;;6153891;23;20219;-84
2022/10/28 09:33:15;;;;;;;10.18;9.27;;;12.20;99.90;;;;;;6155165;23;20167;-86
2022/10/28 09:35:47;;;;;;;13.18;10.40;;;12.20;99.90;;;;;;6154583;23;20171;-85
2022/10/28 09:38:25;;;;;;;10.98;9.60;;;12.20;99.90;;;;;;6154816;23;20224;-85
2022/10/28 09:40:56;;;;;;;10.27;9.27;;;12.20;99.90;;;;;;6154405;23;20197;-86
2022/10/28 09:43:30;;;;;;;12.05;9.80;;;12.30;99.90;;;;;;6154630;23;20175;-85
2022/10/28 09:46:06;;;;;;;11.35;10.23;;;12.30;99.90;;;;;;6154528;23;20191;-85
2022/10/28 09:48:37;;;;;;;10.65;9.65;;;12.30;99.90;;;;;;6154242;23;20182;-85
2022/10/28 09:51:05;;;;;;;10.02;9.13;;;12.30;99.90;;;;;;6154579;23;20190;-86
2022/10/28 09:53:41;;;;;;;12.45;11.15;;;12.30;99.90;;;;;;6155828;23;20179;-85
2022/10/28 09:56:10;;;;;;;11.70;10.52;;;12.30;99.90;;;;;;6155194;23;20170;-86
2022/10/28 09:58:44;;;;;;;15.85;11.57;;;12.20;99.90;;;;;;6154110;23;20226;-85
2022/10/28 10:01:13;;;;;;;14.23;11.52;;;12.20;99.90;;;;;;6154860;23;20198;-85
2022/10/28 10:03:42;;;;;;;12.68;11.57;;;12.30;99.90;;;;;;6154500;23;20178;-86
2022/10/28 10:06:14;;;;;;;13.05;11.80;;;12.30;99.90;;;;;;6154855;23;20187;-85
2022/10/28 10:08:43;;;;;;;11.98;10.85;;;12.30;99.90;;;;;;6153939;23;20175;-86
2022/10/28 10:11:24;;;;;;;12.40;11.10;;;12.30;99.90;;;;;;6154106;23;20218;-86
2022/10/28 10:13:55;;;;;;;12.52;10.98;;;12.30;99.90;;;;;;6154863;23;20167;-86
2022/10/28 10:16:28;;;;;;;15.27;12.00;;;12.40;99.90;;;;;;6154855;23;20170;-86
2022/10/28 10:18:59;;;;;;;14.10;10.85;;;12.50;99.90;;;;;;6154067;23;20175;-85
2022/10/28 10:21:44;;;;;;;12.15;10.98;;;12.50;99.90;;;;;;6154513;23;20195;-86
2022/10/28 10:24:28;;;;;;;13.07;11.80;;;12.50;99.90;;;;;;6153113;23;20171;-85
2022/10/28 10:27:00;;;;;;;12.35;11.23;;;12.50;99.90;;;;;;6154536;23;20215;-85
2022/10/28 10:29:31;;;;;;;12.32;10.98;;;12.50;99.90;;;;;;6154870;23;20172;-86
2022/10/28 10:32:16;;;;;;;14.77;12.93;;;12.60;99.90;;;;;;6156218;23;20187;-86
2022/10/28 10:34:52;;;;;;;13.25;12.05;;;12.60;99.90;;;;;;6156327;23;20164;-86
2022/10/28 10:37:22;;;;;;;13.00;11.70;;;12.60;99.90;;;;;;6156040;23;20178;-85
2022/10/28 10:40:19;;;;;;;13.40;11.68;;;12.50;99.90;;;;;;6155261;23;20198;-85
2022/10/28 10:42:48;;;;;;;11.85;10.77;;;12.60;99.90;;;;;;6137518;23;20181;-85
2022/10/28 10:45:37;;;;;;;11.32;10.35;;;12.60;99.90;;;;;;6155878;23;20304;-85
2022/10/28 10:48:14;;;;;;;12.27;11.07;;;12.60;99.90;;;;;;6156629;23;20183;-86
2022/10/28 10:50:44;;;;;;;12.35;11.15;;;12.60;99.90;;;;;;6155086;23;20197;-86
2022/10/28 10:53:23;;;;;;;13.13;10.23;;;12.60;99.90;;;;;;6156289;23;20168;-86
2022/10/28 10:55:55;;;;;;;10.20;9.30;;;12.70;99.90;;;;;;6156483;23;20170;-85
2022/10/28 10:58:26;;;;;;;11.77;9.93;;;12.70;99.90;;;;;;6155808;23;20176;-85
2022/10/28 11:00:58;;;;;;;10.30;9.25;;;12.70;99.90;;;;;;6156023;23;20219;-86
2022/10/28 11:03:30;;;;;;;10.30;9.43;;;12.80;99.90;;;;;;6156542;23;20163;-86
2022/10/28 11:06:01;;;;;;;11.45;10.32;;;12.90;99.90;;;;;;6156277;23;20193;-86
2022/10/28 11:08:54;;;;;;;10.60;9.65;;;12.90;99.90;;;;;;6155319;23;20186;-86
2022/10/28 11:11:31;;;;;;;9.80;8.93;;;13.00;99.90;;;;;;6156732;23;20202;-86
2022/10/28 11:14:05;;;;;;;9.75;8.75;;;13.10;99.90;;;;;;6156219;23;20168;-87
2022/10/28 11:16:47;;;;;;;13.95;10.50;;;13.10;99.90;;;;;;6155941;23;20171;-85
2022/10/28 11:19:20;;;;;;;11.57;10.48;;;13.10;99.90;;;;;;6155054;23;20169;-86
2022/10/28 11:22:12;;;;;;;11.90;10.60;;;13.20;99.90;;;;;;6155801;23;20195;-86
2022/10/28 11:25:02;;;;;;;11.70;10.50;;;13.20;99.90;;;;;;6155835;23;20181;-86
2022/10/28 11:27:46;;;;;;;9.68;8.88;;;13.20;99.90;;;;;;6111115;23;20203;-86
2022/10/28 11:30:29;;;;;;;11.68;10.50;;;13.20;99.90;;;;;;6155163;23;20203;-86
2022/10/28 11:33:08;;;;;;;10.05;9.13;;;13.30;99.90;;;;;;6156019;23;20170;-86
2022/10/28 11:36:03;;;;;;;9.82;8.82;;;13.20;99.90;;;;;;6155835;23;20230;-86
2022/10/28 11:39:01;;;;;;;9.40;8.57;;;13.20;99.90;;;;;;6155300;23;20183;-86
2022/10/28 11:41:44;;;;;;;9.35;8.43;;;13.30;99.90;;;;;;6155193;23;20191;-86
2022/10/28 11:44:26;;;;;;;9.13;8.32;;;13.30;99.90;;;;;;6156327;23;20167;-86
2022/10/28 11:47:05;;;;;;;10.25;9.25;;;13.30;99.90;;;;;;6155759;23;20195;-86
2022/10/28 11:50:16;;;;;;;11.10;10.00;;;13.30;99.90;;;;;;6155082;23;20173;-86
2022/10/28 11:53:12;;;;;;;10.75;9.75;;;13.30;99.90;;;;;;6155458;23;20178;-86
2022/10/28 11:55:47;;;;;;;12.18;10.15;;;13.20;99.90;;;;;;6102788;23;20178;-86
2022/10/28 11:58:23;;;;;;;10.07;9.18;;;13.30;99.90;;;;;;6155635;23;20167;-86
2022/10/28 12:01:01;;;;;;;10.25;9.32;;;13.20;99.90;;;;;;6155789;23;20190;-87
2022/10/28 12:03:45;;;;;;;9.52;8.73;;;13.20;99.90;;;;;;6155753;23;20226;-87
2022/10/28 12:06:24;;;;;;;11.65;10.45;;;13.30;99.90;;;;;;6155454;23;20187;-87
2022/10/28 12:09:07;;;;;;;10.95;9.95;;;13.30;99.90;;;;;;6154615;23;20175;-86
2022/10/28 12:11:54;;;;;;;10.65;9.63;;;13.30;99.90;;;;;;6155197;23;20202;-86
2022/10/28 12:14:32;;;;;;;9.85;8.95;;;13.30;99.90;;;;;;6155936;23;20206;-87
2022/10/28 12:17:12;;;;;;;10.25;9.18;;;13.30;99.90;;;;;;6155305;23;20428;-86
2022/10/28 12:19:48;;;;;;;9.73;8.90;;;13.40;99.90;;;;;;6154806;23;20185;-87
2022/10/28 12:22:26;;;;;;;9.63;8.82;;;13.40;99.90;;;;;;6155397;23;20182;-87
2022/10/28 12:24:56;;;;;;;12.25;10.25;;;13.40;99.90;;;;;;6156033;23;20227;-86
2022/10/28 12:27:30;;;;;;;13.43;10.38;;;13.40;99.90;;;;;;6156952;23;20191;-87
2022/10/28 12:30:03;;;;;;;10.77;9.77;;;13.40;99.90;;;;;;6154843;23;20191;-86
2022/10/28 12:32:35;;;;;;;14.60;10.27;;;13.50;99.90;;;;;;6155325;23;20178;-86
2022/10/28 12:35:08;;;;;;;11.48;10.32;;;13.50;99.90;;;;;;6155210;23;20173;-87
2022/10/28 12:37:42;;;;;;;9.90;9.02;;;13.40;99.90;;;;;;6155118;23;20164;-86
2022/10/28 12:40:20;;;;;;;10.15;9.25;;;13.40;99.90;;;;;;6154265;23;20226;-86
2022/10/28 12:42:55;;;;;;;10.02;9.13;;;13.40;99.90;;;;;;6155112;23;20179;-87
2022/10/28 12:45:24;;;;;;;11.80;9.10;;;13.40;99.90;;;;;;6155065;23;20182;-86
2022/10/28 12:47:58;;;;;;;11.00;9.88;;;13.30;99.90;;;;;;6155139;23;20191;-86
2022/10/28 12:50:31;;;;;;;10.18;9.27;;;13.30;99.90;;;;;;6154286;23;20214;-87
2022/10/28 12:53:16;;;;;;;10.98;9.93;;;13.20;99.90;;;;;;6154628;23;20167;-86
2022/10/28 12:55:50;;;;;;;9.85;8.75;;;13.20;99.90;;;;;;6154924;23;20175;-86
2022/10/28 12:58:24;;;;;;;10.57;9.57;;;13.20;99.90;;;;;;6155242;23;20174;-87